createdAt,value
2019-01-21T00:00:58.629Z,82.75
2019-01-21T00:01:58.617Z,83.29
2019-01-21T00:02:58.621Z,83.18
2019-01-21T00:03:58.613Z,82.00
2019-01-21T00:04:58.617Z,82.11
2019-01-21T00:05:58.570Z,81.90
2019-01-21T00:06:58.562Z,82.11
2019-01-21T00:07:58.559Z,82.75
2019-01-21T00:08:58.567Z,83.22
2019-01-21T00:09:58.530Z,83.50
2019-01-21T00:10:58.572Z,83.44
2019-01-21T00:11:58.513Z,83.61
2019-01-21T00:12:58.528Z,83.61
2019-01-21T00:13:58.489Z,83.83
2019-01-21T00:14:58.483Z,83.61
2019-01-21T00:15:58.482Z,84.04
2019-01-21T00:16:58.454Z,83.07
2019-01-21T00:17:58.483Z,83.18
2019-01-21T00:18:58.425Z,83.22
2019-01-21T00:19:58.433Z,82.79
2019-01-21T00:20:58.460Z,83.11
2019-01-21T00:21:58.418Z,82.86
2019-01-21T00:22:58.392Z,82.47
2019-01-21T00:23:58.371Z,81.82
2019-01-21T00:24:58.983Z,82.15
2019-01-21T00:25:58.408Z,81.82
2019-01-21T00:26:58.358Z,82.15
2019-01-21T00:27:58.330Z,81.40
2019-01-21T00:28:58.323Z,81.29
2019-01-21T00:29:58.309Z,81.65
2019-01-21T00:30:58.351Z,81.75
2019-01-21T00:31:58.315Z,81.43
2019-01-21T00:32:58.279Z,81.96
2019-01-21T00:33:58.306Z,82.29
2019-01-21T00:34:58.279Z,82.82
2019-01-21T00:35:58.252Z,82.82
2019-01-21T00:37:03.496Z,82.93
2019-01-21T00:37:58.241Z,82.51
2019-01-21T00:38:58.242Z,82.61
2019-01-21T00:39:58.213Z,82.40
2019-01-21T00:40:58.248Z,82.40
2019-01-21T00:41:58.187Z,82.18
2019-01-21T00:42:58.188Z,82.18
2019-01-21T00:43:58.291Z,81.75
2019-01-21T00:44:58.155Z,81.75
2019-01-21T00:45:58.157Z,81.43
2019-01-21T00:46:58.149Z,81.36
2019-01-21T00:47:58.185Z,81.79
2019-01-21T00:48:58.118Z,82.32
2019-01-21T00:49:58.175Z,82.43
2019-01-21T00:50:58.104Z,82.22
2019-01-21T00:51:58.078Z,82.43
2019-01-21T00:52:58.113Z,83.29
2019-01-21T00:53:58.086Z,82.97
2019-01-21T00:54:58.081Z,82.43
2019-01-21T00:55:58.030Z,82.65
2019-01-21T00:56:58.036Z,82.97
2019-01-21T00:57:58.013Z,82.86
2019-01-21T00:58:59.072Z,82.86
2019-01-21T00:59:57.991Z,81.79
2019-01-21T01:00:57.997Z,81.46
2019-01-21T01:01:57.972Z,81.68
2019-01-21T01:02:57.970Z,81.79
2019-01-21T01:03:57.958Z,82.22
2019-01-21T01:05:01.077Z,82.54
2019-01-21T01:05:57.946Z,82.32
2019-01-21T01:06:57.974Z,82.22
2019-01-21T01:07:57.913Z,82.43
2019-01-21T01:08:57.909Z,82.90
2019-01-21T01:09:57.915Z,82.90
2019-01-21T01:10:57.942Z,82.43
2019-01-21T01:11:57.878Z,82.86
2019-01-21T01:12:57.873Z,82.79
2019-01-21T01:13:57.884Z,83.22
2019-01-21T01:14:57.870Z,82.26
2019-01-21T01:15:57.837Z,82.04
2019-01-21T01:16:57.832Z,81.82
2019-01-21T01:17:57.854Z,81.61
2019-01-21T01:18:57.813Z,81.29
2019-01-21T01:19:57.787Z,81.40
2019-01-21T01:20:57.803Z,81.93
2019-01-21T01:21:57.779Z,81.93
2019-01-21T01:22:57.770Z,82.58
2019-01-21T01:23:57.749Z,83.01
2019-01-21T01:24:57.754Z,83.44
2019-01-21T01:25:57.749Z,84.52
2019-01-21T01:26:57.721Z,83.44
2019-01-21T01:27:57.739Z,83.98
2019-01-21T01:28:57.759Z,83.33
2019-01-21T01:29:57.686Z,83.33
2019-01-21T01:30:57.716Z,82.68
2019-01-21T01:31:57.692Z,82.47
2019-01-21T01:32:57.680Z,82.58
2019-01-21T01:33:57.651Z,82.36
2019-01-21T01:34:57.677Z,82.26
2019-01-21T01:35:57.625Z,81.86
2019-01-21T01:36:57.607Z,81.76
2019-01-21T01:37:57.600Z,82.29
2019-01-21T01:38:57.587Z,83.04
2019-01-21T01:39:57.628Z,83.69
2019-01-21T01:40:57.586Z,84.01
2019-01-21T01:41:57.560Z,83.91
2019-01-21T01:42:57.579Z,83.80
2019-01-21T01:43:57.538Z,84.01
2019-01-21T01:44:57.558Z,84.12
2019-01-21T01:45:57.528Z,83.80
2019-01-21T01:46:57.519Z,83.80
2019-01-21T01:47:57.556Z,83.91
2019-01-21T01:48:57.479Z,84.01
2019-01-21T01:49:57.478Z,83.91
2019-01-21T01:50:57.459Z,82.97
2019-01-21T01:51:57.462Z,82.40
2019-01-21T01:52:57.481Z,82.43
2019-01-21T01:53:57.430Z,82.51
2019-01-21T01:54:57.423Z,83.19
2019-01-21T01:55:57.417Z,83.37
2019-01-21T01:56:57.397Z,83.69
2019-01-21T01:57:57.655Z,83.91
2019-01-21T01:58:57.699Z,83.58
2019-01-21T01:59:57.376Z,83.15
2019-01-21T02:00:57.353Z,82.43
2019-01-21T02:01:57.347Z,81.86
2019-01-21T02:02:57.373Z,81.79
2019-01-21T02:03:57.345Z,81.90
2019-01-21T02:04:57.323Z,82.01
2019-01-21T02:05:57.304Z,82.65
2019-01-21T02:06:57.295Z,82.65
2019-01-21T02:07:57.306Z,82.72
2019-01-21T02:08:57.283Z,82.43
2019-01-21T02:09:57.277Z,82.76
2019-01-21T02:10:57.286Z,82.33
2019-01-21T02:11:57.244Z,82.43
2019-01-21T02:12:57.265Z,82.01
2019-01-21T02:13:57.218Z,81.90
2019-01-21T02:14:57.229Z,81.57
2019-01-21T02:15:57.206Z,81.57
2019-01-21T02:16:57.191Z,81.47
2019-01-21T02:17:57.224Z,81.68
2019-01-21T02:18:57.164Z,81.90
2019-01-21T02:19:57.207Z,82.01
2019-01-21T02:20:57.173Z,81.68
2019-01-21T02:21:57.168Z,82.33
2019-01-21T02:22:57.132Z,82.01
2019-01-21T02:23:57.130Z,82.01
2019-01-21T02:24:57.137Z,82.11
2019-01-21T02:25:57.094Z,81.57
2019-01-21T02:26:57.083Z,81.90
2019-01-21T02:27:57.077Z,82.22
2019-01-21T02:28:57.090Z,82.11
2019-01-21T02:29:57.065Z,82.33
2019-01-21T02:30:57.040Z,82.33
2019-01-21T02:31:57.045Z,82.22
2019-01-21T02:32:57.055Z,81.68
2019-01-21T02:33:57.008Z,81.40
2019-01-21T02:34:57.002Z,81.40
2019-01-21T02:35:57.005Z,81.40
2019-01-21T02:36:57.032Z,81.93
2019-01-21T02:37:56.965Z,82.22
2019-01-21T02:38:57.012Z,81.93
2019-01-21T02:39:56.962Z,81.72
2019-01-21T02:40:56.943Z,81.93
2019-01-21T02:41:56.999Z,82.04
2019-01-21T02:42:56.922Z,80.75
2019-01-21T02:43:56.909Z,80.54
2019-01-21T02:44:56.937Z,80.79
2019-01-21T02:45:56.910Z,81.50
2019-01-21T02:46:56.870Z,82.04
2019-01-21T02:48:00.218Z,81.97
2019-01-21T02:48:56.883Z,81.65
2019-01-21T02:49:56.848Z,81.72
2019-01-21T02:50:56.849Z,81.61
2019-01-21T02:51:56.831Z,81.76
2019-01-21T02:52:56.825Z,81.72
2019-01-21T02:53:56.820Z,81.50
2019-01-21T02:54:56.819Z,81.76
2019-01-21T02:55:56.803Z,81.65
2019-01-21T02:56:56.788Z,81.65
2019-01-21T02:57:56.765Z,81.97
2019-01-21T02:58:56.769Z,81.76
2019-01-21T02:59:56.730Z,82.08
2019-01-21T03:00:56.727Z,82.04
2019-01-21T03:01:56.743Z,81.93
2019-01-21T03:02:56.702Z,81.65
2019-01-21T03:03:56.706Z,80.79
2019-01-21T03:04:56.680Z,81.00
2019-01-21T03:05:56.679Z,81.65
2019-01-21T03:06:56.698Z,82.29
2019-01-21T03:07:56.663Z,82.73
2019-01-21T03:08:56.639Z,82.51
2019-01-21T03:09:56.648Z,82.73
2019-01-21T03:10:56.622Z,82.08
2019-01-21T03:11:56.651Z,81.97
2019-01-21T03:12:56.605Z,81.97
2019-01-21T03:13:56.623Z,82.73
2019-01-21T03:14:56.579Z,83.15
2019-01-21T03:15:56.571Z,83.26
2019-01-21T03:16:56.602Z,83.15
2019-01-21T03:17:56.546Z,82.62
2019-01-21T03:18:56.556Z,82.18
2019-01-21T03:19:56.559Z,81.65
2019-01-21T03:20:56.519Z,81.25
2019-01-21T03:21:56.509Z,81.32
2019-01-21T03:22:56.492Z,81.86
2019-01-21T03:23:56.516Z,82.18
2019-01-21T03:24:56.506Z,82.40
2019-01-21T03:25:56.455Z,82.40
2019-01-21T03:26:56.478Z,82.51
2019-01-21T03:27:56.454Z,81.76
2019-01-21T03:28:56.459Z,81.43
2019-01-21T03:29:56.423Z,81.65
2019-01-21T03:30:56.460Z,81.79
2019-01-21T03:31:56.430Z,81.65
2019-01-21T03:32:56.410Z,81.79
2019-01-21T03:33:56.389Z,81.90
2019-01-21T03:34:56.374Z,81.79
2019-01-21T03:35:56.412Z,81.79
2019-01-21T03:36:56.356Z,82.18
2019-01-21T03:37:56.348Z,82.51
2019-01-21T03:38:56.349Z,82.08
2019-01-21T03:39:56.333Z,81.86
2019-01-21T03:40:56.366Z,81.68
2019-01-21T03:41:56.292Z,81.90
2019-01-21T03:42:56.289Z,81.79
2019-01-21T03:43:56.333Z,82.76
2019-01-21T03:44:56.269Z,83.30
2019-01-21T03:45:56.259Z,82.83
2019-01-21T03:46:56.262Z,82.65
2019-01-21T03:47:56.250Z,82.54
2019-01-21T03:48:56.247Z,82.98
2019-01-21T03:49:56.214Z,83.30
2019-01-21T03:50:56.230Z,82.54
2019-01-21T03:51:56.195Z,82.54
2019-01-21T03:52:56.207Z,81.90
2019-01-21T03:53:56.200Z,81.83
2019-01-21T03:54:56.170Z,81.47
2019-01-21T03:55:56.174Z,81.47
2019-01-21T03:56:56.133Z,81.57
2019-01-21T03:57:56.161Z,81.79
2019-01-21T03:58:56.137Z,82.22
2019-01-21T03:59:56.141Z,81.68
2019-01-21T04:00:56.124Z,81.68
2019-01-21T04:01:56.087Z,82.01
2019-01-21T04:02:56.098Z,81.93
2019-01-21T04:03:56.187Z,81.57
2019-01-21T04:04:56.081Z,81.93
2019-01-21T04:05:56.040Z,81.68
2019-01-21T04:06:56.037Z,81.79
2019-01-21T04:07:56.804Z,81.90
2019-01-21T04:08:56.041Z,81.83
2019-01-21T04:09:55.995Z,81.57
2019-01-21T04:10:56.029Z,81.79
2019-01-21T04:11:55.986Z,82.22
2019-01-21T04:12:55.998Z,82.01
2019-01-21T04:13:55.959Z,81.68
2019-01-21T04:14:55.993Z,81.90
2019-01-21T04:15:55.958Z,80.96
2019-01-21T04:16:55.945Z,81.51
2019-01-21T04:17:55.984Z,81.93
2019-01-21T04:18:55.908Z,81.79
2019-01-21T04:19:55.898Z,81.79
2019-01-21T04:20:55.929Z,81.72
2019-01-21T04:21:55.881Z,81.68
2019-01-21T04:22:55.899Z,81.79
2019-01-21T04:23:55.878Z,81.57
2019-01-21T04:24:55.851Z,80.86
2019-01-21T04:25:55.827Z,80.10
2019-01-21T04:26:55.855Z,80.32
2019-01-21T04:27:55.817Z,80.32
2019-01-21T04:28:55.811Z,80.43
2019-01-21T04:29:55.811Z,80.86
2019-01-21T04:30:55.784Z,80.96
2019-01-21T04:31:55.802Z,80.96
2019-01-21T04:32:55.829Z,81.51
2019-01-21T04:33:55.754Z,81.93
2019-01-21T04:34:55.755Z,81.93
2019-01-21T04:35:55.744Z,81.29
2019-01-21T04:36:55.721Z,81.83
2019-01-21T04:37:55.747Z,81.72
2019-01-21T04:38:55.700Z,82.04
2019-01-21T04:39:55.690Z,82.15
2019-01-21T04:40:55.678Z,82.37
2019-01-21T04:41:55.684Z,82.15
2019-01-21T04:42:55.697Z,81.61
2019-01-21T04:43:55.650Z,81.72
2019-01-21T04:44:55.643Z,81.72
2019-01-21T04:45:55.654Z,81.93
2019-01-21T04:46:55.620Z,82.15
2019-01-21T04:47:55.631Z,82.69
2019-01-21T04:48:55.624Z,82.80
2019-01-21T04:49:55.586Z,82.48
2019-01-21T04:50:55.603Z,81.61
2019-01-21T04:51:55.572Z,81.76
2019-01-21T04:52:55.563Z,81.72
2019-01-21T04:53:55.566Z,82.26
2019-01-21T04:54:55.564Z,81.93
2019-01-21T04:55:55.523Z,81.72
2019-01-21T04:56:55.514Z,81.61
2019-01-21T04:57:55.529Z,81.07
2019-01-21T04:58:55.489Z,81.97
2019-01-21T04:59:55.499Z,81.72
2019-01-21T05:00:55.492Z,81.72
2019-01-21T05:01:55.468Z,81.83
2019-01-21T05:02:55.477Z,81.86
2019-01-21T05:03:55.441Z,81.76
2019-01-21T05:04:55.436Z,81.72
2019-01-21T05:05:55.417Z,82.26
2019-01-21T05:06:55.422Z,82.04
2019-01-21T05:07:55.419Z,82.08
2019-01-21T05:08:55.386Z,81.76
2019-01-21T05:09:55.378Z,81.76
2019-01-21T05:10:55.364Z,81.61
2019-01-21T05:11:55.384Z,81.72
2019-01-21T05:12:55.350Z,81.76
2019-01-21T05:13:55.335Z,81.76
2019-01-21T05:14:55.329Z,81.83
2019-01-21T05:15:55.336Z,81.97
2019-01-21T05:16:55.333Z,81.11
2019-01-21T05:17:55.288Z,80.89
2019-01-21T05:18:55.305Z,80.89
2019-01-21T05:19:55.278Z,82.04
2019-01-21T05:20:55.290Z,81.65
2019-01-21T05:21:55.260Z,82.08
2019-01-21T05:22:55.241Z,82.08
2019-01-21T05:23:55.229Z,81.86
2019-01-21T05:24:55.254Z,81.40
2019-01-21T05:25:55.216Z,80.10
2019-01-21T05:26:55.196Z,79.71
2019-01-21T05:27:55.192Z,80.14
2019-01-21T05:28:55.189Z,80.07
2019-01-21T05:29:55.182Z,80.24
2019-01-21T05:30:55.159Z,81.76
2019-01-21T05:31:55.168Z,81.97
2019-01-21T05:32:55.158Z,81.86
2019-01-21T05:33:55.132Z,81.97
2019-01-21T05:34:55.124Z,81.11
2019-01-21T05:35:55.114Z,80.82
2019-01-21T05:36:55.095Z,80.71
2019-01-21T05:37:55.112Z,80.93
2019-01-21T05:38:55.083Z,81.04
2019-01-21T05:39:55.088Z,81.57
2019-01-21T05:40:55.050Z,82.01
2019-01-21T05:41:55.053Z,82.12
2019-01-21T05:42:55.060Z,82.44
2019-01-21T05:43:55.044Z,82.62
2019-01-21T05:44:55.017Z,82.62
2019-01-21T05:45:55.000Z,82.62
2019-01-21T05:46:55.021Z,82.73
2019-01-21T05:47:55.002Z,82.18
2019-01-21T05:48:55.026Z,82.29
2019-01-21T05:49:54.962Z,82.18
2019-01-21T05:50:54.960Z,82.08
2019-01-21T05:51:54.944Z,81.97
2019-01-21T05:52:54.932Z,81.86
2019-01-21T05:53:54.962Z,81.65
2019-01-21T05:54:54.954Z,81.76
2019-01-21T05:55:54.903Z,82.22
2019-01-21T05:56:54.891Z,81.68
2019-01-21T05:57:54.951Z,81.97
2019-01-21T05:58:54.891Z,81.65
2019-01-21T05:59:54.852Z,81.97
2019-01-21T06:00:54.870Z,81.54
2019-01-21T06:01:54.893Z,81.76
2019-01-21T06:02:54.841Z,81.65
2019-01-21T06:03:54.834Z,81.68
2019-01-21T06:04:54.802Z,81.86
2019-01-21T06:05:54.797Z,82.29
2019-01-21T06:06:54.813Z,81.86
2019-01-21T06:07:54.768Z,82.33
2019-01-21T06:08:54.786Z,81.86
2019-01-21T06:09:54.751Z,81.76
2019-01-21T06:10:54.746Z,82.01
2019-01-21T06:11:54.767Z,81.04
2019-01-21T06:12:54.720Z,80.71
2019-01-21T06:13:54.717Z,81.04
2019-01-21T06:14:54.715Z,82.12
2019-01-21T06:15:54.710Z,81.90
2019-01-21T06:16:54.676Z,82.12
2019-01-21T06:17:54.719Z,81.79
2019-01-21T06:18:57.495Z,81.68
2019-01-21T06:19:54.648Z,81.68
2019-01-21T06:20:54.633Z,81.68
2019-01-21T06:21:54.635Z,80.82
2019-01-21T06:22:54.647Z,81.57
2019-01-21T06:23:54.608Z,81.57
2019-01-21T06:24:54.602Z,81.90
2019-01-21T06:25:54.588Z,82.12
2019-01-21T06:26:54.574Z,81.90
2019-01-21T06:27:54.603Z,82.12
2019-01-21T06:28:54.591Z,82.01
2019-01-21T06:29:54.570Z,81.79
2019-01-21T06:30:54.533Z,82.01
2019-01-21T06:31:54.522Z,81.57
2019-01-21T06:32:54.543Z,82.01
2019-01-21T06:33:54.503Z,82.01
2019-01-21T06:34:54.526Z,82.01
2019-01-21T06:35:54.493Z,82.01
2019-01-21T06:36:54.476Z,82.12
2019-01-21T06:37:54.463Z,81.68
2019-01-21T06:38:54.447Z,81.68
2019-01-21T06:39:54.480Z,81.79
2019-01-21T06:40:54.469Z,81.90
2019-01-21T06:41:54.416Z,81.79
2019-01-21T06:42:54.410Z,82.01
2019-01-21T06:43:54.409Z,82.12
2019-01-21T06:44:54.422Z,82.12
2019-01-21T06:45:54.371Z,82.15
2019-01-21T06:46:54.394Z,81.68
2019-01-21T06:47:54.363Z,81.79
2019-01-21T06:48:54.343Z,81.90
2019-01-21T06:49:54.344Z,81.68
2019-01-21T06:50:54.322Z,81.68
2019-01-21T06:51:54.332Z,81.68
2019-01-21T06:52:54.302Z,82.01
2019-01-21T06:53:54.295Z,81.90
2019-01-21T06:54:54.286Z,81.90
2019-01-21T06:55:54.273Z,81.68
2019-01-21T06:56:54.309Z,81.79
2019-01-21T06:57:54.250Z,81.90
2019-01-21T06:58:54.243Z,81.79
2019-01-21T06:59:54.228Z,81.79
2019-01-21T07:00:54.253Z,82.01
2019-01-21T07:01:54.214Z,81.79
2019-01-21T07:02:54.196Z,82.12
2019-01-21T07:03:54.270Z,82.12
2019-01-21T07:04:54.204Z,82.12
2019-01-21T07:05:54.166Z,81.90
2019-01-21T07:06:54.163Z,81.68
2019-01-21T07:07:54.158Z,81.68
2019-01-21T07:08:54.173Z,81.25
2019-01-21T07:09:54.126Z,80.60
2019-01-21T07:10:54.133Z,80.93
2019-01-21T07:11:54.123Z,81.57
2019-01-21T07:12:54.104Z,82.12
2019-01-21T07:13:54.117Z,82.01
2019-01-21T07:14:54.081Z,82.33
2019-01-21T07:15:54.088Z,81.90
2019-01-21T07:16:54.062Z,82.08
2019-01-21T07:17:54.042Z,81.65
2019-01-21T07:18:54.045Z,81.25
2019-01-21T07:19:54.033Z,80.93
2019-01-21T07:20:54.042Z,80.71
2019-01-21T07:21:54.034Z,80.79
2019-01-21T07:22:54.011Z,80.60
2019-01-21T07:23:53.983Z,80.82
2019-01-21T07:24:53.974Z,82.01
2019-01-21T07:25:54.002Z,81.76
2019-01-21T07:26:53.975Z,82.29
2019-01-21T07:27:53.942Z,81.76
2019-01-21T07:28:53.933Z,81.65
2019-01-21T07:29:53.921Z,81.86
2019-01-21T07:30:53.920Z,81.76
2019-01-21T07:31:53.922Z,81.61
2019-01-21T07:32:53.911Z,81.72
2019-01-21T07:33:53.879Z,81.54
2019-01-21T07:34:53.861Z,81.40
2019-01-21T07:35:53.880Z,84.31
2019-01-21T07:36:53.879Z,85.60
2019-01-21T07:37:53.830Z,85.67
2019-01-21T07:38:53.845Z,85.13
2019-01-21T07:39:53.821Z,84.59
2019-01-21T07:40:53.812Z,84.84
2019-01-21T07:41:53.845Z,84.27
2019-01-21T07:42:53.789Z,84.38
2019-01-21T07:43:53.788Z,83.73
2019-01-21T07:44:53.799Z,83.30
2019-01-21T07:45:53.758Z,82.76
2019-01-21T07:46:53.763Z,82.44
2019-01-21T07:47:53.733Z,81.79
2019-01-21T07:48:53.724Z,81.61
2019-01-21T07:49:53.746Z,81.90
2019-01-21T07:50:53.725Z,81.90
2019-01-21T07:51:53.681Z,81.90
2019-01-21T07:52:53.669Z,81.90
2019-01-21T07:53:53.721Z,82.65
2019-01-21T07:54:53.664Z,82.62
2019-01-21T07:55:53.665Z,82.40
2019-01-21T07:56:53.634Z,82.51
2019-01-21T07:57:53.631Z,82.51
2019-01-21T07:58:53.658Z,82.62
2019-01-21T07:59:53.601Z,82.51
2019-01-21T08:00:53.631Z,82.18
2019-01-21T08:01:53.583Z,82.08
2019-01-21T08:02:53.573Z,82.58
2019-01-21T08:03:53.590Z,82.58
2019-01-21T08:04:53.580Z,82.79
2019-01-21T08:05:53.547Z,83.12
2019-01-21T08:06:53.554Z,83.01
2019-01-21T08:07:53.520Z,82.69
2019-01-21T08:08:53.546Z,82.33
2019-01-21T08:09:53.495Z,82.33
2019-01-21T08:10:53.489Z,82.58
2019-01-21T08:11:53.478Z,82.54
2019-01-21T08:12:53.495Z,82.87
2019-01-21T08:13:53.481Z,83.29
2019-01-21T08:14:53.445Z,84.01
2019-01-21T08:15:53.436Z,84.01
2019-01-21T08:16:53.438Z,84.23
2019-01-21T08:17:53.441Z,84.01
2019-01-21T08:18:53.403Z,84.01
2019-01-21T08:19:53.392Z,84.55
2019-01-21T08:20:53.413Z,85.27
2019-01-21T08:21:53.374Z,85.05
2019-01-21T08:22:53.392Z,85.48
2019-01-21T08:23:53.348Z,85.05
2019-01-21T08:24:53.349Z,85.59
2019-01-21T08:25:53.331Z,85.16
2019-01-21T08:26:53.356Z,85.02
2019-01-21T08:27:53.324Z,84.91
2019-01-21T08:28:53.306Z,84.37
2019-01-21T08:29:53.286Z,84.47
2019-01-21T08:30:53.283Z,84.47
2019-01-21T08:31:53.310Z,84.55
2019-01-21T08:32:53.264Z,83.90
2019-01-21T08:33:54.165Z,84.76
2019-01-21T08:34:53.235Z,84.97
2019-01-21T08:35:53.231Z,85.51
2019-01-21T08:36:53.256Z,85.15
2019-01-21T08:37:53.204Z,85.69
2019-01-21T08:38:53.213Z,85.69
2019-01-21T08:39:53.185Z,85.58
2019-01-21T08:40:53.198Z,86.01
2019-01-21T08:41:53.196Z,86.19
2019-01-21T08:42:53.164Z,86.12
2019-01-21T08:43:53.140Z,86.51
2019-01-21T08:44:53.132Z,86.83
2019-01-21T08:45:53.130Z,86.72
2019-01-21T08:46:53.162Z,87.01
2019-01-21T08:47:53.112Z,86.36
2019-01-21T08:48:53.134Z,86.25
2019-01-21T08:49:53.104Z,85.83
2019-01-21T08:50:53.078Z,85.83
2019-01-21T08:51:53.063Z,86.36
2019-01-21T08:52:53.094Z,86.58
2019-01-21T08:53:53.043Z,86.58
2019-01-21T08:54:53.050Z,86.43
2019-01-21T08:55:53.020Z,86.22
2019-01-21T08:56:53.035Z,86.33
2019-01-21T08:57:52.996Z,86.76
2019-01-21T08:58:52.989Z,87.15
2019-01-21T08:59:52.981Z,86.93
2019-01-21T09:00:52.985Z,86.93
2019-01-21T09:01:52.985Z,86.82
2019-01-21T09:02:52.992Z,86.61
2019-01-21T09:03:52.936Z,87.21
2019-01-21T09:04:52.938Z,87.32
2019-01-21T09:05:53.026Z,87.85
2019-01-21T09:06:52.948Z,88.03
2019-01-21T09:07:52.901Z,88.57
2019-01-21T09:08:52.895Z,88.67
2019-01-21T09:09:52.871Z,89.70
2019-01-21T09:10:52.873Z,89.70
2019-01-21T09:11:53.849Z,89.70
2019-01-21T09:12:52.855Z,90.09
2019-01-21T09:13:52.879Z,90.52
2019-01-21T09:14:52.833Z,90.09
2019-01-21T09:15:52.810Z,91.06
2019-01-21T09:16:52.795Z,90.95
2019-01-21T09:17:52.813Z,91.38
2019-01-21T09:18:52.805Z,91.02
2019-01-21T09:19:52.773Z,90.97
2019-01-21T09:20:57.953Z,90.97
2019-01-21T09:21:52.763Z,91.08
2019-01-21T09:22:52.730Z,91.08
2019-01-21T09:23:52.746Z,91.61
2019-01-21T09:24:52.737Z,91.51
2019-01-21T09:25:52.741Z,91.83
2019-01-21T09:26:52.706Z,92.00
2019-01-21T09:27:52.682Z,91.79
2019-01-21T09:28:52.682Z,91.79
2019-01-21T09:29:52.673Z,91.36
2019-01-21T09:30:52.649Z,92.00
2019-01-21T09:31:52.646Z,91.53
2019-01-21T09:32:52.661Z,91.75
2019-01-21T09:33:52.640Z,91.96
2019-01-21T09:34:52.627Z,91.53
2019-01-21T09:35:52.597Z,91.32
2019-01-21T09:36:52.606Z,91.60
2019-01-21T09:37:52.589Z,91.49
2019-01-21T09:38:52.562Z,91.60
2019-01-21T09:39:52.615Z,91.46
2019-01-21T09:40:52.545Z,91.46
2019-01-21T09:41:52.548Z,91.46
2019-01-21T09:42:52.548Z,91.35
2019-01-21T09:43:52.516Z,91.13
2019-01-21T09:44:52.536Z,91.30
2019-01-21T09:45:52.518Z,91.03
2019-01-21T09:46:52.480Z,91.73
2019-01-21T09:47:52.523Z,91.84
2019-01-21T09:48:52.462Z,91.63
2019-01-21T09:49:52.491Z,91.73
2019-01-21T09:50:52.447Z,91.27
2019-01-21T09:51:52.426Z,91.58
2019-01-21T09:52:52.421Z,91.27
2019-01-21T09:53:52.436Z,91.27
2019-01-21T09:54:52.408Z,91.01
2019-01-21T09:55:52.407Z,91.75
2019-01-21T09:56:52.384Z,91.33
2019-01-21T09:57:52.371Z,91.86
2019-01-21T09:58:52.361Z,91.65
2019-01-21T09:59:53.401Z,91.93
2019-01-21T10:00:52.358Z,91.82
2019-01-21T10:01:52.326Z,92.68
2019-01-21T10:02:52.322Z,92.74
2019-01-21T10:03:52.309Z,92.63
2019-01-21T10:04:52.283Z,91.96
2019-01-21T10:05:52.273Z,91.85
2019-01-21T10:06:52.312Z,91.38
2019-01-21T10:07:52.261Z,91.27
2019-01-21T10:08:52.257Z,90.64
2019-01-21T10:09:55.301Z,90.84
2019-01-21T10:10:52.229Z,90.53
2019-01-21T10:11:52.240Z,90.59
2019-01-21T10:12:52.206Z,91.02
2019-01-21T10:13:52.235Z,90.49
2019-01-21T10:14:52.178Z,90.28
2019-01-21T10:15:52.179Z,89.39
2019-01-21T10:16:52.160Z,89.28
2019-01-21T10:17:52.173Z,89.13
2019-01-21T10:18:52.159Z,89.17
2019-01-21T10:19:52.276Z,88.64
2019-01-21T10:20:52.123Z,89.03
2019-01-21T10:21:52.102Z,88.71
2019-01-21T10:22:52.135Z,88.81
2019-01-21T10:23:52.087Z,88.92
2019-01-21T10:24:52.088Z,89.34
2019-01-21T10:25:52.061Z,89.09
2019-01-21T10:26:52.050Z,88.78
2019-01-21T10:27:52.125Z,88.88
2019-01-21T10:28:52.037Z,88.98
2019-01-21T10:29:52.020Z,89.31
2019-01-21T10:30:52.043Z,89.20
2019-01-21T10:31:51.994Z,89.31
2019-01-21T10:32:51.995Z,89.58
2019-01-21T10:33:52.033Z,89.69
2019-01-21T10:34:51.970Z,89.79
2019-01-21T10:35:51.960Z,89.26
2019-01-21T10:36:51.952Z,89.58
2019-01-21T10:37:52.893Z,89.12
2019-01-21T10:38:51.933Z,89.43
2019-01-21T10:39:51.929Z,89.65
2019-01-21T10:40:51.915Z,89.65
2019-01-21T10:41:51.917Z,90.08
2019-01-21T10:42:51.874Z,90.25
2019-01-21T10:43:51.895Z,89.72
2019-01-21T10:44:51.869Z,90.25
2019-01-21T10:45:51.847Z,90.35
2019-01-21T10:46:51.880Z,90.10
2019-01-21T10:47:51.825Z,89.57
2019-01-21T10:48:51.853Z,89.57
2019-01-21T10:49:57.233Z,89.36
2019-01-21T10:50:52.796Z,89.42
2019-01-21T10:51:51.784Z,89.31
2019-01-21T10:52:51.776Z,90.06
2019-01-21T10:53:51.773Z,89.91
2019-01-21T10:54:51.788Z,89.49
2019-01-21T10:55:51.792Z,88.96
2019-01-21T10:56:51.765Z,88.53
2019-01-21T10:57:51.720Z,88.81
2019-01-21T10:58:51.713Z,88.81
2019-01-21T10:59:51.693Z,87.96
2019-01-21T11:00:51.718Z,87.93
2019-01-21T11:01:51.681Z,87.50
2019-01-21T11:02:51.662Z,88.35
2019-01-21T11:03:51.662Z,87.71
2019-01-21T11:04:51.661Z,88.31
2019-01-21T11:05:51.641Z,87.46
2019-01-21T11:06:51.643Z,86.72
2019-01-21T11:07:51.604Z,86.93
2019-01-21T11:08:51.598Z,86.79
2019-01-21T11:09:51.587Z,86.79
2019-01-21T11:10:51.616Z,87.21
2019-01-21T11:11:54.089Z,86.79
2019-01-21T11:12:51.555Z,86.58
2019-01-21T11:13:51.552Z,87.00
2019-01-21T11:14:51.533Z,87.00
2019-01-21T11:15:51.532Z,87.00
2019-01-21T11:16:51.533Z,86.65
2019-01-21T11:17:51.501Z,86.85
2019-01-21T11:18:51.503Z,87.28
2019-01-21T11:19:51.481Z,87.17
2019-01-21T11:20:51.465Z,86.92
2019-01-21T11:21:51.482Z,86.82
2019-01-21T11:22:51.450Z,86.82
2019-01-21T11:23:51.436Z,86.08
2019-01-21T11:24:51.433Z,85.19
2019-01-21T11:25:51.414Z,85.61
2019-01-21T11:26:51.436Z,85.19
2019-01-21T11:27:51.772Z,84.56
2019-01-21T11:28:51.382Z,83.78
2019-01-21T11:29:51.373Z,84.00
2019-01-21T11:30:51.367Z,83.47
2019-01-21T11:31:51.360Z,83.26
2019-01-21T11:32:51.355Z,82.73
2019-01-21T11:33:51.383Z,83.04
2019-01-21T11:34:51.319Z,82.79
2019-01-21T11:35:51.332Z,82.59
2019-01-21T11:36:51.287Z,82.37
2019-01-21T11:37:51.332Z,82.17
2019-01-21T11:38:51.282Z,82.69
2019-01-21T11:39:51.261Z,82.13
2019-01-21T11:40:51.254Z,81.49
2019-01-21T11:41:51.259Z,81.07
2019-01-21T11:42:51.233Z,80.33
2019-01-21T11:43:51.248Z,80.05
2019-01-21T11:44:51.223Z,80.33
2019-01-21T11:45:51.191Z,80.02
2019-01-21T11:46:51.182Z,80.23
2019-01-21T11:47:51.168Z,79.98
2019-01-21T11:48:51.169Z,80.30
2019-01-21T11:49:51.202Z,80.08
2019-01-21T11:50:51.138Z,80.08
2019-01-21T11:51:51.134Z,79.14
2019-01-21T11:52:51.113Z,78.68
2019-01-21T11:53:51.114Z,78.19
2019-01-21T11:54:51.108Z,78.68
2019-01-21T11:55:51.182Z,78.47
2019-01-21T11:56:51.096Z,78.82
2019-01-21T11:57:51.055Z,78.72
2019-01-21T11:58:51.050Z,78.58
2019-01-21T11:59:51.045Z,77.84
2019-01-21T12:00:51.029Z,78.26
2019-01-21T12:01:51.048Z,78.36
2019-01-21T12:02:51.011Z,77.94
2019-01-21T12:03:51.017Z,77.94
2019-01-21T12:04:50.993Z,78.16
2019-01-21T12:05:50.978Z,77.59
2019-01-21T12:06:50.979Z,78.47
2019-01-21T12:07:50.981Z,78.86
2019-01-21T12:08:50.941Z,78.54
2019-01-21T12:09:50.935Z,79.66
2019-01-21T12:10:50.925Z,79.66
2019-01-21T12:11:50.932Z,79.87
2019-01-21T12:12:50.902Z,78.30
2019-01-21T12:13:50.917Z,78.36
2019-01-21T12:14:50.879Z,77.62
2019-01-21T12:15:50.869Z,77.14
2019-01-21T12:16:50.859Z,77.84
2019-01-21T12:17:50.880Z,78.05
2019-01-21T12:18:50.838Z,77.56
2019-01-21T12:19:50.864Z,77.84
2019-01-21T12:20:50.819Z,76.68
2019-01-21T12:21:50.801Z,76.26
2019-01-21T12:22:50.790Z,76.57
2019-01-21T12:23:50.777Z,76.26
2019-01-21T12:24:50.810Z,75.42
2019-01-21T12:25:50.783Z,75.73
2019-01-21T12:26:50.754Z,75.52
2019-01-21T12:27:50.746Z,75.63
2019-01-21T12:28:50.727Z,75.52
2019-01-21T12:29:50.720Z,74.89
2019-01-21T12:30:50.728Z,74.86
2019-01-21T12:31:50.719Z,75.28
2019-01-21T12:32:50.678Z,74.86
2019-01-21T12:33:50.665Z,74.96
2019-01-21T12:34:50.658Z,74.76
2019-01-21T12:35:50.650Z,75.07
2019-01-21T12:36:50.661Z,74.82
2019-01-21T12:37:50.662Z,74.93
2019-01-21T12:38:50.615Z,74.09
2019-01-21T12:39:50.600Z,74.51
2019-01-21T12:40:50.597Z,74.37
2019-01-21T12:41:50.580Z,74.48
2019-01-21T12:42:50.598Z,73.22
2019-01-21T12:43:50.596Z,73.22
2019-01-21T12:44:50.548Z,73.25
2019-01-21T12:45:50.541Z,73.57
2019-01-21T12:46:50.531Z,73.32
2019-01-21T12:47:50.516Z,73.22
2019-01-21T12:48:50.508Z,73.00
2019-01-21T12:49:50.551Z,72.48
2019-01-21T12:50:50.477Z,73.00
2019-01-21T12:51:50.475Z,73.39
2019-01-21T12:52:50.472Z,72.03